aviador You're here:

KXNA Decoded Metar

BENTONVILLE (NW) in AR, USA
Report Time2017-09-24 06:53:00
UTC Time2017-09-24 06:59:05
Flight Rules vfr VFR
Wind120° at 03 kt
W.Decomp.*RWY 16: 2.2 kt HW 2.1 kt LCW
RWY 17: 1.8 kt HW 2.4 kt LCW
W.Rank120° ranks 25
Current wind is below 120° avg. (5.9)
Visibility9999 m
Phenomena:N/A
Clouds:N/A
Expected CloudBase > 1,200 ft AGL from Temp-Dew spread
CeilingNone
Temp22°C (ISA +10)
Dew Point19°C (83% RH)
QNH1015 hPa
Density Alt2,628 ft
Elevation1,286 ft
Report Wrong Elevation
Raw Report
METAR KXNA 240653Z AUTO 12003KT 10SM CLR 22/19 A2998 RMK AO2 SLP136
T02170189=

Extra information for KXNA:More info

Metar Taf Metar & Taf Last 4 Metars F.Rules Stats Wind Profile Meteogram Temp Stats Airport Information Weather charts Add Link Nearby VenuesMetar ALERT Operation Metar Decoded Social comments

AIRNAV info for KXNA